Time;durP1;ratioP1;P1;durP2;ratioP2;P2;SDS_P1;SDS_P2;PMS_P1;PMS_P2;Temp;Humidity;BMP_temperature;BMP_pressure;BME280_temperature;BME280_humidity;BME280_pressure;Samples;Min_cycle;Max_cycle;Signal;HPM_P1;HPM_P2
2022/07/22 00:00:25;;;;;;;3.00;2.25;;;20.30;76.40;;;;;;1885081;76;21038;-64
2022/07/22 00:02:54;;;;;;;2.50;2.30;;;20.20;76.50;;;;;;1885050;76;21050;-64
2022/07/22 00:05:24;;;;;;;3.83;2.30;;;20.20;76.60;;;;;;1885107;76;21041;-65
2022/07/22 00:07:53;;;;;;;6.12;2.33;;;20.20;76.60;;;;;;1885042;76;21081;-64
2022/07/22 00:10:23;;;;;;;5.70;3.55;;;20.20;76.60;;;;;;1885036;76;21013;-64
2022/07/22 00:12:52;;;;;;;2.83;2.17;;;20.20;77.00;;;;;;1885089;76;21117;-65
2022/07/22 00:15:21;;;;;;;4.42;2.55;;;20.20;77.30;;;;;;1884918;76;21010;-64
2022/07/22 00:17:51;;;;;;;3.35;2.67;;;20.20;77.30;;;;;;1885103;76;21120;-64
2022/07/22 00:20:21;;;;;;;2.67;2.22;;;20.20;77.20;;;;;;1885116;76;21021;-65
2022/07/22 00:22:50;;;;;;;3.22;2.40;;;20.20;77.00;;;;;;1885111;76;21057;-65
2022/07/22 00:25:19;;;;;;;2.10;1.90;;;20.10;76.90;;;;;;1885120;76;21037;-64
2022/07/22 00:27:48;;;;;;;3.83;2.40;;;20.10;77.20;;;;;;1885029;76;21073;-64
2022/07/22 00:30:18;;;;;;;2.45;2.22;;;20.00;77.10;;;;;;1885078;76;21053;-64
2022/07/22 00:32:48;;;;;;;3.42;2.00;;;20.00;77.30;;;;;;1884986;76;21066;-65
2022/07/22 00:35:17;;;;;;;4.05;2.10;;;19.90;77.70;;;;;;1885001;76;21033;-65
2022/07/22 00:37:48;;;;;;;3.25;2.20;;;19.90;77.80;;;;;;1884969;76;21018;-64
2022/07/22 00:40:17;;;;;;;2.40;2.20;;;19.90;78.10;;;;;;1885085;76;21030;-64
2022/07/22 00:42:47;;;;;;;2.62;2.27;;;19.90;78.00;;;;;;1884916;76;21088;-64
2022/07/22 00:45:16;;;;;;;8.53;2.62;;;20.00;78.10;;;;;;1885075;76;21103;-65
2022/07/22 00:47:46;;;;;;;4.17;2.25;;;20.00;77.80;;;;;;1885030;76;21095;-65
2022/07/22 00:50:16;;;;;;;4.12;2.27;;;20.00;77.70;;;;;;1885046;76;21061;-64
2022/07/22 00:52:46;;;;;;;3.80;2.17;;;20.00;77.50;;;;;;1885071;76;21034;-64
2022/07/22 00:55:15;;;;;;;6.35;2.10;;;20.00;77.80;;;;;;1885012;76;21014;-64
2022/07/22 00:57:45;;;;;;;3.20;2.22;;;20.00;77.90;;;;;;1884929;76;21095;-64
2022/07/22 01:00:17;;;;;;;3.17;2.20;;;20.00;77.80;;;;;;1885062;76;21103;-64
2022/07/22 01:02:46;;;;;;;2.40;2.10;;;20.00;78.00;;;;;;1884867;76;21510;-64
2022/07/22 01:05:17;;;;;;;2.90;2.17;;;20.00;77.80;;;;;;1885092;76;21033;-64
2022/07/22 01:07:47;;;;;;;3.37;2.50;;;20.00;77.70;;;;;;1884968;76;21455;-64
2022/07/22 01:10:17;;;;;;;3.30;2.22;;;19.90;77.50;;;;;;1885005;76;21037;-64
2022/07/22 01:12:47;;;;;;;3.42;3.00;;;19.70;77.60;;;;;;1885078;76;21014;-65
2022/07/22 01:15:17;;;;;;;2.77;2.33;;;19.60;77.70;;;;;;1857968;76;21073;-64
2022/07/22 01:17:46;;;;;;;4.60;2.80;;;19.50;77.70;;;;;;1887369;76;21074;-64
2022/07/22 01:20:16;;;;;;;3.50;3.20;;;19.40;77.70;;;;;;1888064;76;21491;-64
2022/07/22 01:22:45;;;;;;;4.62;2.58;;;19.20;77.70;;;;;;1888019;76;21038;-64
2022/07/22 01:25:15;;;;;;;3.77;2.45;;;19.20;78.10;;;;;;1888082;76;21112;-64
2022/07/22 01:27:44;;;;;;;2.55;2.17;;;19.10;78.20;;;;;;1887934;76;21033;-64
2022/07/22 01:30:14;;;;;;;5.20;2.22;;;19.00;78.10;;;;;;1888030;76;21096;-64
2022/07/22 01:32:44;;;;;;;5.15;2.80;;;19.00;78.10;;;;;;1888022;76;21088;-64
2022/07/22 01:35:13;;;;;;;6.00;2.58;;;18.90;78.10;;;;;;1888024;76;21111;-64
2022/07/22 01:37:43;;;;;;;2.37;2.10;;;18.90;78.00;;;;;;1888010;76;21005;-64
2022/07/22 01:40:13;;;;;;;2.98;2.37;;;18.90;78.60;;;;;;1887969;76;21034;-64
2022/07/22 01:42:42;;;;;;;3.05;2.37;;;18.90;78.80;;;;;;1887835;76;21034;-64
2022/07/22 01:45:12;;;;;;;5.22;2.27;;;19.00;78.70;;;;;;1887882;76;21053;-64
2022/07/22 01:47:41;;;;;;;3.35;2.15;;;19.00;78.80;;;;;;1887888;76;21029;-64
2022/07/22 01:50:12;;;;;;;3.83;2.77;;;19.10;78.90;;;;;;1887968;76;21115;-64
2022/07/22 01:52:42;;;;;;;5.72;2.22;;;19.10;79.20;;;;;;1887716;74;21107;-64
2022/07/22 01:55:12;;;;;;;2.67;2.20;;;19.20;79.20;;;;;;1888149;76;21460;-65
2022/07/22 01:57:41;;;;;;;4.40;2.30;;;19.20;79.00;;;;;;1888086;76;21030;-64
2022/07/22 02:00:16;;;;;;;8.15;2.50;;;19.30;78.70;;;;;;1887192;76;21050;-65
2022/07/22 02:02:44;;;;;;;3.70;2.12;;;19.20;78.90;;;;;;1887794;76;21103;-64
2022/07/22 02:05:14;;;;;;;2.83;1.92;;;19.30;78.70;;;;;;1887964;76;21088;-64
2022/07/22 02:07:43;;;;;;;3.50;2.20;;;19.30;78.60;;;;;;1887930;76;21034;-64
2022/07/22 02:10:13;;;;;;;2.40;2.08;;;19.40;78.70;;;;;;1887963;76;21058;-64
2022/07/22 02:12:42;;;;;;;2.45;2.25;;;19.40;78.60;;;;;;1887950;76;21013;-64
2022/07/22 02:15:13;;;;;;;2.90;1.85;;;19.40;78.30;;;;;;1887671;76;21037;-64
2022/07/22 02:17:43;;;;;;;5.45;2.08;;;19.40;78.10;;;;;;1887914;76;21147;-64
2022/07/22 02:20:13;;;;;;;4.20;3.37;;;19.40;78.00;;;;;;1887927;76;21042;-64
2022/07/22 02:22:43;;;;;;;3.22;2.05;;;19.40;77.90;;;;;;1887919;76;21097;-64
2022/07/22 02:25:12;;;;;;;3.87;2.20;;;19.30;78.10;;;;;;1888010;76;21034;-64
2022/07/22 02:27:43;;;;;;;3.45;2.60;;;19.30;77.50;;;;;;1887909;76;21061;-64
2022/07/22 02:30:13;;;;;;;3.40;2.52;;;19.10;77.50;;;;;;1887971;76;20993;-64
2022/07/22 02:32:42;;;;;;;2.98;2.50;;;19.10;77.60;;;;;;1887906;76;21107;-64
2022/07/22 02:35:12;;;;;;;5.33;2.67;;;19.00;77.30;;;;;;1887943;76;21099;-64
2022/07/22 02:37:41;;;;;;;7.28;2.85;;;18.90;77.10;;;;;;1887985;76;21005;-64
2022/07/22 02:40:11;;;;;;;3.40;1.98;;;18.70;77.20;;;;;;1887948;76;21042;-64
2022/07/22 02:42:40;;;;;;;3.85;2.42;;;18.70;77.10;;;;;;1887870;76;21131;-64
2022/07/22 02:45:10;;;;;;;3.20;2.60;;;18.60;77.20;;;;;;1887823;76;21111;-65
2022/07/22 02:47:54;;;;;;;3.92;3.52;;;18.50;77.80;;;;;;1888071;76;20998;-64
2022/07/22 02:50:24;;;;;;;5.75;2.70;;;18.50;78.00;;;;;;1888215;76;21332;-64
2022/07/22 02:52:54;;;;;;;10.20;3.10;;;18.70;77.60;;;;;;1888009;76;21088;-64
2022/07/22 02:55:25;;;;;;;5.08;3.05;;;18.80;77.60;;;;;;1887807;76;21076;-64
2022/07/22 02:57:55;;;;;;;3.27;2.77;;;18.90;77.60;;;;;;1888018;76;21045;-64
2022/07/22 03:00:25;;;;;;;2.30;2.00;;;19.00;77.40;;;;;;1887995;76;21101;-64
2022/07/22 03:02:54;;;;;;;3.20;2.00;;;19.00;77.40;;;;;;1888051;76;21077;-65
2022/07/22 03:05:24;;;;;;;5.12;2.10;;;19.10;77.70;;;;;;1887999;76;21091;-64
2022/07/22 03:07:55;;;;;;;4.65;2.00;;;19.20;77.80;;;;;;1887877;76;21206;-64
2022/07/22 03:10:25;;;;;;;3.60;2.22;;;19.30;77.60;;;;;;1888179;76;21080;-64
2022/07/22 03:12:56;;;;;;;5.20;2.15;;;19.40;77.50;;;;;;1888102;76;21034;-64
2022/07/22 03:15:26;;;;;;;2.95;2.25;;;19.40;77.10;;;;;;1888147;76;21029;-65
2022/07/22 03:17:55;;;;;;;3.67;2.52;;;19.40;77.00;;;;;;1887946;76;21077;-64
2022/07/22 03:20:25;;;;;;;6.90;2.15;;;19.50;77.20;;;;;;1887948;76;21171;-65
2022/07/22 03:22:54;;;;;;;4.62;2.30;;;19.50;77.20;;;;;;1887920;76;21080;-64
2022/07/22 03:25:24;;;;;;;8.75;2.70;;;19.60;77.00;;;;;;1888064;76;21061;-64
2022/07/22 03:27:53;;;;;;;7.58;2.50;;;19.70;77.00;;;;;;1887991;76;21120;-64
2022/07/22 03:30:24;;;;;;;9.25;2.95;;;19.90;77.00;;;;;;1888011;76;21021;-64
2022/07/22 03:32:53;;;;;;;5.30;2.25;;;20.00;77.00;;;;;;1887937;76;21560;-64
2022/07/22 03:35:23;;;;;;;4.00;2.22;;;20.10;76.60;;;;;;1888092;76;21123;-64
2022/07/22 03:37:53;;;;;;;2.98;2.05;;;20.20;76.40;;;;;;1887936;76;21025;-65
2022/07/22 03:40:23;;;;;;;5.28;2.50;;;20.30;76.20;;;;;;1888076;76;21045;-64
2022/07/22 03:42:54;;;;;;;4.72;2.80;;;20.40;76.20;;;;;;1887949;76;21456;-64
2022/07/22 03:45:23;;;;;;;5.70;2.60;;;20.40;76.10;;;;;;1887996;76;21018;-65
2022/07/22 03:47:54;;;;;;;3.85;3.05;;;20.50;76.00;;;;;;1887954;76;21091;-65
2022/07/22 03:50:24;;;;;;;14.50;4.33;;;20.60;76.10;;;;;;1888070;76;21107;-65
2022/07/22 03:52:54;;;;;;;4.85;3.27;;;20.80;76.30;;;;;;1887938;76;21022;-65
2022/07/22 03:55:23;;;;;;;25.75;3.25;;;20.90;76.00;;;;;;1887882;76;21112;-65
2022/07/22 03:57:54;;;;;;;4.20;2.20;;;21.10;75.50;;;;;;1887791;76;21142;-65
2022/07/22 04:00:28;;;;;;;3.23;2.30;;;21.20;75.40;;;;;;1887808;76;21060;-65
2022/07/22 04:02:58;;;;;;;5.08;2.58;;;21.30;75.30;;;;;;1887800;76;21029;-65
2022/07/22 04:05:29;;;;;;;5.70;3.02;;;21.50;75.70;;;;;;1883751;75;21128;-64
2022/07/22 04:08:00;;;;;;;3.92;2.08;;;21.60;75.70;;;;;;1887916;76;21095;-64
2022/07/22 04:10:30;;;;;;;3.77;1.77;;;21.80;75.70;;;;;;1887795;76;21025;-64
2022/07/22 04:13:00;;;;;;;5.60;1.60;;;22.00;75.70;;;;;;1887912;76;21037;-64
2022/07/22 04:15:34;;;;;;;3.10;2.58;;;22.20;75.50;;;;;;1886810;76;21136;-65
2022/07/22 04:18:04;;;;;;;2.47;1.60;;;22.30;75.10;;;;;;1887366;76;21171;-65
2022/07/22 04:20:33;;;;;;;4.80;1.92;;;22.50;74.70;;;;;;1884817;76;21177;-65
2022/07/22 04:23:07;;;;;;;2.65;1.75;;;22.70;74.30;;;;;;1872765;75;21089;-65
2022/07/22 04:25:36;;;;;;;5.10;2.08;;;22.80;73.90;;;;;;1884925;76;21057;-65
2022/07/22 04:28:06;;;;;;;5.62;2.45;;;22.90;73.50;;;;;;1885009;76;21029;-65
2022/07/22 04:30:35;;;;;;;1.50;1.40;;;22.90;73.20;;;;;;1885041;76;21085;-65
2022/07/22 04:33:05;;;;;;;2.60;1.40;;;23.10;72.70;;;;;;1884947;76;21081;-65
2022/07/22 04:35:34;;;;;;;2.35;1.90;;;23.10;72.20;;;;;;1884950;76;21038;-65
2022/07/22 04:38:05;;;;;;;2.62;1.87;;;23.20;72.10;;;;;;1878654;76;21109;-65
2022/07/22 04:40:35;;;;;;;3.10;2.02;;;23.30;72.10;;;;;;1884879;76;21116;-65
2022/07/22 04:43:05;;;;;;;3.85;2.25;;;23.30;71.40;;;;;;1884839;76;21323;-65
2022/07/22 04:45:34;;;;;;;6.65;2.12;;;23.40;71.40;;;;;;1884965;76;21076;-65
2022/07/22 04:48:05;;;;;;;5.53;2.15;;;23.40;71.00;;;;;;1884746;76;21022;-64
2022/07/22 04:50:35;;;;;;;3.62;1.60;;;23.50;71.00;;;;;;1893716;76;21025;-65
2022/07/22 04:53:05;;;;;;;6.87;2.17;;;23.50;70.50;;;;;;1906933;75;21533;-65
2022/07/22 04:55:34;;;;;;;3.25;2.25;;;23.60;70.40;;;;;;1894538;75;21020;-65
2022/07/22 04:58:04;;;;;;;4.25;2.98;;;23.70;70.20;;;;;;1894368;76;21083;-65
2022/07/22 05:00:33;;;;;;;5.35;1.90;;;23.70;70.10;;;;;;1894453;76;21025;-65
2022/07/22 05:03:03;;;;;;;4.70;1.70;;;23.80;69.90;;;;;;1894328;76;21017;-65
2022/07/22 05:05:32;;;;;;;5.95;1.85;;;23.80;69.90;;;;;;1894374;76;21001;-65
2022/07/22 05:08:02;;;;;;;3.30;1.67;;;23.90;69.70;;;;;;1894337;76;21114;-65
2022/07/22 05:10:32;;;;;;;2.12;1.50;;;24.00;69.50;;;;;;1894355;76;21467;-65
2022/07/22 05:13:01;;;;;;;5.25;1.77;;;24.10;69.40;;;;;;1894144;76;21098;-64
2022/07/22 05:15:31;;;;;;;7.22;1.92;;;24.20;68.80;;;;;;1894428;76;21037;-64
2022/07/22 05:18:01;;;;;;;2.90;1.60;;;24.20;68.60;;;;;;1894388;76;21082;-64
2022/07/22 05:20:32;;;;;;;5.67;2.00;;;24.30;68.40;;;;;;1909940;74;21077;-64
2022/07/22 05:23:01;;;;;;;4.12;1.87;;;24.40;68.20;;;;;;1912018;74;21026;-64
2022/07/22 05:25:32;;;;;;;4.47;1.77;;;24.50;68.00;;;;;;1911805;74;21104;-64
2022/07/22 05:28:01;;;;;;;3.50;1.52;;;24.60;67.50;;;;;;1911968;75;21429;-64
2022/07/22 05:30:36;;;;;;;3.25;1.70;;;24.60;67.30;;;;;;1912098;74;21144;-64
2022/07/22 05:33:06;;;;;;;4.12;1.80;;;24.70;67.20;;;;;;1911966;74;21135;-64
2022/07/22 05:35:37;;;;;;;6.00;1.77;;;24.80;66.90;;;;;;1907295;74;21041;-64
2022/07/22 05:38:06;;;;;;;2.27;1.52;;;24.80;66.50;;;;;;1912047;74;21082;-64
2022/07/22 05:40:35;;;;;;;2.25;1.55;;;24.90;66.40;;;;;;1911994;75;21179;-64
2022/07/22 05:43:06;;;;;;;5.30;1.55;;;25.00;66.00;;;;;;1911877;74;21143;-63
2022/07/22 05:45:35;;;;;;;3.58;2.25;;;25.10;65.90;;;;;;1912058;75;21123;-64
2022/07/22 05:48:05;;;;;;;5.53;1.52;;;25.10;65.60;;;;;;1911862;75;21002;-64
2022/07/22 05:50:36;;;;;;;7.58;2.33;;;25.10;65.40;;;;;;1911995;74;21019;-64
2022/07/22 05:53:05;;;;;;;3.80;1.87;;;25.20;65.40;;;;;;1912090;75;21135;-63
2022/07/22 05:55:35;;;;;;;3.95;2.40;;;25.30;65.30;;;;;;1911982;75;21026;-63
2022/07/22 05:58:04;;;;;;;3.90;1.90;;;25.40;65.20;;;;;;1911951;75;21030;-63
2022/07/22 06:00:34;;;;;;;2.22;1.50;;;25.50;64.90;;;;;;1911845;74;21034;-63
2022/07/22 06:03:04;;;;;;;3.30;1.90;;;25.50;64.60;;;;;;1911848;75;21018;-64
2022/07/22 06:05:35;;;;;;;3.80;1.80;;;25.60;64.90;;;;;;1911881;75;21096;-63
2022/07/22 06:08:05;;;;;;;3.83;1.80;;;25.70;64.50;;;;;;1912084;75;21030;-64
2022/07/22 06:10:45;;;;;;;7.12;2.02;;;25.70;64.00;;;;;;1911825;74;21042;-64
2022/07/22 06:13:14;;;;;;;6.70;2.02;;;25.80;64.20;;;;;;1912068;74;21018;-64
2022/07/22 06:15:44;;;;;;;6.92;2.62;;;25.90;63.90;;;;;;1912112;74;22427;-64
2022/07/22 06:18:14;;;;;;;2.92;1.98;;;26.00;63.60;;;;;;1912004;75;21034;-63
2022/07/22 06:20:44;;;;;;;4.47;2.65;;;26.10;63.70;;;;;;1911871;74;21058;-64
2022/07/22 06:23:13;;;;;;;4.92;2.17;;;26.10;63.70;;;;;;1911972;74;21018;-64
2022/07/22 06:25:43;;;;;;;11.20;7.53;;;26.20;63.70;;;;;;1911924;74;20999;-64
2022/07/22 06:28:13;;;;;;;4.67;2.35;;;26.30;63.30;;;;;;1910800;74;20999;-64
2022/07/22 06:30:43;;;;;;;3.90;2.12;;;26.40;63.20;;;;;;1911876;75;21037;-64
2022/07/22 06:33:12;;;;;;;5.65;2.15;;;26.40;62.10;;;;;;1911842;75;21080;-64
2022/07/22 06:35:41;;;;;;;5.83;2.10;;;26.40;61.40;;;;;;1911969;75;21084;-64
2022/07/22 06:38:12;;;;;;;4.25;1.42;;;26.50;61.30;;;;;;1911821;75;21043;-63
2022/07/22 06:40:43;;;;;;;5.20;2.92;;;26.50;60.80;;;;;;1890746;75;21045;-63
2022/07/22 06:43:16;;;;;;;7.37;1.98;;;26.50;60.90;;;;;;1903298;74;21143;-63
2022/07/22 06:45:53;;;;;;;5.22;1.75;;;26.60;61.10;;;;;;1895064;75;21042;-63
2022/07/22 06:48:28;;;;;;;7.25;1.87;;;26.70;60.50;;;;;;1910802;74;21131;-63
2022/07/22 06:50:57;;;;;;;1.47;1.37;;;26.70;60.50;;;;;;1912111;74;21026;-63
2022/07/22 06:53:26;;;;;;;2.58;1.67;;;26.80;59.40;;;;;;1912245;75;20998;-63
2022/07/22 06:55:57;;;;;;;1.82;1.35;;;26.80;59.10;;;;;;1912223;75;21490;-64
2022/07/22 06:58:26;;;;;;;3.20;1.65;;;26.90;58.90;;;;;;1912062;75;21057;-63
2022/07/22 07:01:15;;;;;;;7.60;2.02;;;26.90;58.80;;;;;;1911908;75;21132;-63
2022/07/22 07:04:01;;;;;;;;;;;26.90;59.10;;;;;;1903025;74;21064;-63
2022/07/22 07:06:31;;;;;;;3.02;1.87;;;27.00;58.90;;;;;;1900644;74;20146;-63
2022/07/22 07:09:19;;;;;;;4.67;1.85;;;27.10;58.40;;;;;;1900742;75;21098;-64
2022/07/22 07:11:50;;;;;;;10.85;3.25;;;27.10;58.10;;;;;;1898092;74;21109;-64
2022/07/22 07:14:26;;;;;;;3.17;1.60;;;27.20;57.80;;;;;;1896691;75;21116;-64
2022/07/22 07:16:59;;;;;;;7.28;1.67;;;27.30;56.90;;;;;;1894723;72;21085;-64
2022/07/22 07:19:29;;;;;;;4.22;1.80;;;27.30;56.40;;;;;;1895041;74;21065;-64
2022/07/22 07:21:58;;;;;;;11.12;2.20;;;27.30;56.40;;;;;;1894931;75;21001;-64
2022/07/22 07:24:28;;;;;;;3.77;1.37;;;27.20;55.70;;;;;;1894929;76;21095;-64
2022/07/22 07:26:57;;;;;;;2.75;1.87;;;27.20;55.10;;;;;;1894913;76;21033;-64
2022/07/22 07:29:28;;;;;;;11.57;3.00;;;27.20;55.70;;;;;;1894943;76;21037;-64
2022/07/22 07:31:57;;;;;;;3.42;1.40;;;27.10;55.90;;;;;;1894899;76;21002;-64
2022/07/22 07:34:26;;;;;;;8.23;2.00;;;27.10;55.50;;;;;;1895021;75;21030;-64
2022/07/22 07:36:57;;;;;;;5.72;1.75;;;27.10;55.70;;;;;;1895010;75;21115;-64
2022/07/22 07:39:27;;;;;;;4.60;1.70;;;27.20;55.50;;;;;;1894956;76;21514;-64
2022/07/22 07:41:56;;;;;;;1.82;1.55;;;27.20;55.00;;;;;;1894871;74;21091;-65
2022/07/22 07:44:26;;;;;;;6.08;2.20;;;27.30;54.40;;;;;;1894767;76;21083;-65
2022/07/22 07:47:01;;;;;;;3.95;1.77;;;27.30;53.70;;;;;;1894740;76;21029;-64
2022/07/22 07:49:36;;;;;;;4.65;1.95;;;27.40;52.70;;;;;;1891213;75;21120;-65
2022/07/22 07:52:06;;;;;;;8.45;2.30;;;27.50;52.60;;;;;;1891291;75;21498;-64
2022/07/22 07:54:35;;;;;;;5.22;1.92;;;27.60;52.60;;;;;;1891312;76;21153;-64
2022/07/22 07:57:05;;;;;;;3.20;2.50;;;27.70;51.90;;;;;;1891341;75;21015;-64
2022/07/22 07:59:35;;;;;;;3.65;2.22;;;27.60;52.70;;;;;;1891370;75;21157;-65
2022/07/22 08:02:05;;;;;;;3.20;1.45;;;27.70;52.80;;;;;;1891596;74;21243;-65
2022/07/22 08:04:36;;;;;;;5.83;2.12;;;27.80;52.60;;;;;;1891711;75;21083;-65
2022/07/22 08:07:08;;;;;;;4.03;1.87;;;27.80;51.60;;;;;;1890889;75;21140;-65
2022/07/22 08:09:37;;;;;;;6.17;2.02;;;27.90;51.70;;;;;;1891606;74;21035;-65
2022/07/22 08:12:09;;;;;;;2.40;2.10;;;27.90;52.10;;;;;;1890327;74;21070;-65
2022/07/22 08:14:43;;;;;;;4.62;2.10;;;27.90;52.20;;;;;;1880327;75;21125;-64
2022/07/22 08:17:29;;;;;;;5.80;1.82;;;27.80;51.90;;;;;;1864188;76;21092;-64
2022/07/22 08:19:58;;;;;;;2.10;1.90;;;27.60;51.80;;;;;;1891709;75;21016;-64
2022/07/22 08:22:28;;;;;;;5.30;1.55;;;27.50;52.40;;;;;;1891610;75;21063;-65
2022/07/22 08:24:57;;;;;;;6.87;3.75;;;27.50;52.40;;;;;;1891491;76;21043;-65
2022/07/22 08:27:28;;;;;;;6.37;1.72;;;27.60;51.70;;;;;;1891035;76;21050;-65
2022/07/22 08:29:58;;;;;;;3.70;1.52;;;27.60;51.20;;;;;;1891554;76;21039;-65
2022/07/22 08:32:27;;;;;;;4.40;1.35;;;27.60;50.90;;;;;;1891493;75;21043;-65
2022/07/22 08:34:57;;;;;;;2.95;1.52;;;27.60;50.90;;;;;;1891479;75;21032;-65
2022/07/22 08:37:27;;;;;;;10.88;2.27;;;27.70;51.90;;;;;;1891435;74;21146;-64
2022/07/22 08:39:56;;;;;;;3.83;1.95;;;27.80;51.70;;;;;;1891567;76;21031;-64
2022/07/22 08:42:26;;;;;;;2.15;1.57;;;27.70;54.00;;;;;;1891447;75;21056;-65
2022/07/22 08:44:55;;;;;;;7.03;1.80;;;27.70;54.30;;;;;;1891424;76;21036;-64
2022/07/22 08:47:25;;;;;;;2.65;1.57;;;27.60;53.80;;;;;;1891518;76;21113;-64
2022/07/22 08:50:09;;;;;;;3.47;1.80;;;27.70;53.10;;;;;;1927311;74;21078;-65
2022/07/22 08:52:40;;;;;;;2.25;2.05;;;27.90;55.00;;;;;;1928222;74;21590;-65
2022/07/22 08:55:10;;;;;;;3.65;1.60;;;28.00;55.50;;;;;;1930086;74;21054;-65
2022/07/22 08:57:41;;;;;;;3.42;1.47;;;28.10;55.80;;;;;;1930023;74;21137;-65
2022/07/22 09:00:13;;;;;;;8.28;1.95;;;28.30;53.70;;;;;;1929977;74;21412;-65
2022/07/22 09:02:43;;;;;;;8.80;1.80;;;28.40;52.80;;;;;;1929900;74;21100;-64
2022/07/22 09:05:15;;;;;;;12.00;2.02;;;28.50;51.40;;;;;;1930130;74;21436;-65
2022/07/22 09:07:46;;;;;;;3.40;1.57;;;28.50;51.10;;;;;;1930077;74;21026;-64
2022/07/22 09:10:23;;;;;;;5.47;2.00;;;28.60;50.90;;;;;;1929150;73;21077;-65
2022/07/22 09:13:09;;;;;;;7.35;2.00;;;28.70;51.30;;;;;;1930087;74;21050;-64
2022/07/22 09:15:52;;;;;;;5.72;1.45;;;28.80;50.90;;;;;;1929217;74;21078;-64
2022/07/22 09:18:52;;;;;;;5.85;1.57;;;28.90;50.80;;;;;;1930115;74;21063;-64
2022/07/22 09:21:24;;;;;;;8.30;2.00;;;28.90;50.50;;;;;;1908371;74;21041;-65
2022/07/22 09:24:32;;;;;;;10.78;2.10;;;28.90;49.60;;;;;;1929941;74;21049;-65
2022/07/22 09:27:07;;;;;;;2.85;1.80;;;28.90;50.20;;;;;;1922135;74;21078;-65
2022/07/22 09:29:38;;;;;;;4.22;1.62;;;28.80;50.40;;;;;;1928196;74;21160;-65
2022/07/22 09:32:09;;;;;;;5.08;1.60;;;28.80;50.40;;;;;;1929044;74;21074;-65
2022/07/22 09:34:43;;;;;;;2.27;1.50;;;28.80;50.70;;;;;;1925000;74;21070;-64
2022/07/22 09:37:14;;;;;;;2.70;1.50;;;28.80;50.90;;;;;;1928866;73;21050;-65
2022/07/22 09:39:43;;;;;;;4.65;1.80;;;28.80;51.10;;;;;;1930284;74;21115;-64
2022/07/22 09:42:16;;;;;;;3.02;2.42;;;28.80;51.60;;;;;;1930097;74;21050;-64
2022/07/22 09:44:47;;;;;;;6.87;2.45;;;28.90;51.80;;;;;;1930345;74;21417;-64
2022/07/22 09:47:28;;;;;;;2.92;1.85;;;28.90;51.00;;;;;;1928389;74;21151;-65
2022/07/22 09:50:19;;;;;;;6.20;2.40;;;29.00;52.40;;;;;;1919836;74;21096;-65
2022/07/22 09:52:52;;;;;;;7.67;4.45;;;29.00;53.50;;;;;;1916173;74;21092;-65
2022/07/22 09:55:25;;;;;;;7.58;2.02;;;29.10;54.10;;;;;;1922272;74;21037;-65
2022/07/22 09:57:57;;;;;;;2.87;1.67;;;29.10;54.10;;;;;;1923518;74;21027;-65
2022/07/22 10:00:28;;;;;;;4.72;2.10;;;29.20;53.80;;;;;;1923478;74;21002;-65
2022/07/22 10:02:59;;;;;;;4.87;1.72;;;29.20;53.80;;;;;;1923297;74;21087;-65
2022/07/22 10:05:32;;;;;;;4.08;1.60;;;29.30;54.50;;;;;;1923360;74;21167;-65
2022/07/22 10:08:03;;;;;;;3.37;1.82;;;29.30;55.00;;;;;;1923597;74;21076;-65
2022/07/22 10:10:59;;;;;;;4.65;1.92;;;29.20;54.90;;;;;;1923387;74;21068;-65
2022/07/22 10:13:28;;;;;;;;;;;29.20;55.30;;;;;;1836754;77;21076;-65
2022/07/22 10:15:58;;;;;;;4.00;1.98;;;29.20;55.20;;;;;;1834005;78;20109;-66
2022/07/22 10:18:31;;;;;;;9.18;2.75;;;29.20;55.20;;;;;;1834112;77;21103;-66
2022/07/22 10:21:07;;;;;;;4.40;1.73;;;29.20;55.40;;;;;;1834469;78;21131;-66
2022/07/22 10:23:42;;;;;;;9.83;2.22;;;29.20;55.50;;;;;;1834005;78;21130;-67
2022/07/22 10:26:15;;;;;;;3.87;1.75;;;29.20;55.50;;;;;;1773701;80;21112;-64
2022/07/22 10:28:45;;;;;;;4.10;1.90;;;29.20;55.20;;;;;;1788177;80;21077;-65
2022/07/22 10:31:26;;;;;;;6.42;2.05;;;29.10;55.10;;;;;;1788100;80;21064;-65
2022/07/22 10:33:57;;;;;;;11.75;1.85;;;29.00;55.50;;;;;;1788188;80;21123;-66
2022/07/22 10:36:35;;;;;;;7.62;2.10;;;29.00;55.50;;;;;;1788099;80;21127;-66
2022/07/22 10:39:10;;;;;;;5.50;2.10;;;29.10;54.70;;;;;;1788231;80;21049;-66
2022/07/22 10:41:44;;;;;;;3.80;1.75;;;29.10;54.50;;;;;;1787130;80;21120;-66
2022/07/22 10:44:14;;;;;;;4.00;1.75;;;29.10;54.80;;;;;;1788316;80;21487;-66
2022/07/22 10:46:54;;;;;;;6.28;1.80;;;29.20;54.50;;;;;;1788118;80;21049;-66
2022/07/22 10:49:24;;;;;;;3.90;1.67;;;29.20;54.40;;;;;;1788111;80;21472;-66
2022/07/22 10:52:17;;;;;;;5.67;1.87;;;29.20;54.00;;;;;;1788137;80;21061;-66
2022/07/22 10:55:17;;;;;;;3.90;1.60;;;29.30;53.80;;;;;;1788236;80;21065;-66
2022/07/22 10:57:48;;;;;;;4.85;1.62;;;29.30;53.20;;;;;;1788123;80;21059;-66
2022/07/22 11:00:17;;;;;;;1.98;1.52;;;29.40;52.80;;;;;;1788062;80;21073;-66
2022/07/22 11:02:47;;;;;;;3.85;1.87;;;29.40;52.70;;;;;;1780008;80;21060;-65
2022/07/22 11:05:30;;;;;;;3.37;1.62;;;29.50;52.30;;;;;;1762504;81;21070;-65
2022/07/22 11:07:59;;;;;;;5.10;1.45;;;29.50;52.00;;;;;;1763202;81;21110;-65
2022/07/22 11:10:30;;;;;;;4.10;1.67;;;29.60;51.80;;;;;;1763169;81;21489;-65
2022/07/22 11:13:00;;;;;;;2.98;1.65;;;29.70;51.50;;;;;;1763169;81;21212;-65
2022/07/22 11:15:29;;;;;;;3.87;1.72;;;29.60;51.30;;;;;;1763219;81;21113;-65
2022/07/22 11:17:58;;;;;;;2.52;1.82;;;29.70;51.40;;;;;;1763177;81;21066;-66
2022/07/22 11:20:29;;;;;;;3.98;2.02;;;29.70;51.50;;;;;;1763124;81;21461;-65
2022/07/22 11:22:59;;;;;;;8.58;2.00;;;29.70;51.30;;;;;;1763107;81;21075;-65
2022/07/22 11:25:28;;;;;;;3.25;1.60;;;29.70;51.60;;;;;;1763912;81;21082;-65
2022/07/22 11:27:58;;;;;;;3.77;1.90;;;29.70;51.30;;;;;;1765417;81;21164;-65
2022/07/22 11:30:27;;;;;;;4.60;1.80;;;29.60;51.90;;;;;;1765362;81;21141;-65
2022/07/22 11:32:56;;;;;;;7.80;1.95;;;29.60;50.90;;;;;;1765401;81;21536;-65
2022/07/22 11:35:26;;;;;;;9.25;3.27;;;29.50;50.00;;;;;;1765440;81;21071;-66
2022/07/22 11:37:58;;;;;;;6.40;2.22;;;29.50;49.90;;;;;;1765453;81;21144;-65
2022/07/22 11:40:30;;;;;;;7.03;2.17;;;29.50;49.30;;;;;;1765436;81;21192;-65
2022/07/22 11:43:03;;;;;;;4.35;1.60;;;29.60;49.30;;;;;;1765115;80;21101;-66
2022/07/22 11:45:32;;;;;;;6.62;1.90;;;29.70;49.50;;;;;;1765453;81;21106;-66
2022/07/22 11:48:10;;;;;;;13.53;2.70;;;29.70;49.10;;;;;;1765487;81;21164;-67
2022/07/22 11:50:39;;;;;;;7.33;1.60;;;29.80;49.10;;;;;;1765453;81;21146;-66
2022/07/22 11:53:08;;;;;;;4.30;2.10;;;29.80;48.60;;;;;;1765474;81;21133;-66
2022/07/22 11:55:38;;;;;;;7.15;1.70;;;29.80;48.50;;;;;;1765439;81;21050;-66
2022/07/22 11:58:07;;;;;;;3.42;1.40;;;29.70;48.20;;;;;;1765498;81;21071;-66
2022/07/22 12:00:36;;;;;;;10.50;1.77;;;29.70;48.50;;;;;;1765488;81;21145;-66
2022/07/22 12:03:06;;;;;;;7.15;1.80;;;29.70;48.40;;;;;;1765466;81;21078;-66
2022/07/22 12:05:35;;;;;;;4.62;1.70;;;29.70;48.30;;;;;;1765456;81;21125;-67
2022/07/22 12:08:05;;;;;;;5.15;1.55;;;29.60;48.30;;;;;;1765430;81;21216;-67
2022/07/22 12:10:34;;;;;;;3.67;1.62;;;29.50;48.60;;;;;;1765402;81;21046;-66
2022/07/22 12:13:04;;;;;;;4.28;1.50;;;29.30;48.90;;;;;;1765397;81;21087;-67
2022/07/22 12:15:33;;;;;;;3.17;1.92;;;29.20;49.20;;;;;;1765273;81;21066;-67
2022/07/22 12:18:23;;;;;;;3.52;1.65;;;29.10;49.70;;;;;;1765360;81;21087;-68
2022/07/22 12:20:54;;;;;;;5.55;1.82;;;29.00;50.00;;;;;;1796643;80;21077;-66
2022/07/22 12:23:26;;;;;;;5.47;1.75;;;29.00;50.70;;;;;;1827434;78;21045;-67
2022/07/22 12:25:57;;;;;;;6.58;2.08;;;29.00;50.20;;;;;;1859897;76;21086;-67
2022/07/22 12:28:28;;;;;;;6.17;2.05;;;29.00;50.20;;;;;;1860836;76;21041;-68
2022/07/22 12:30:58;;;;;;;4.12;1.60;;;29.00;50.30;;;;;;1873925;76;21120;-67
2022/07/22 12:33:27;;;;;;;5.45;1.90;;;29.10;49.50;;;;;;1850387;76;21038;-66
2022/07/22 12:36:01;;;;;;;7.65;3.25;;;29.10;49.60;;;;;;1846086;76;21126;-66
2022/07/22 12:38:31;;;;;;;10.20;2.10;;;29.20;49.40;;;;;;1848423;76;21088;-66
2022/07/22 12:41:29;;;;;;;2.87;1.40;;;29.30;49.60;;;;;;1852645;76;21086;-66
2022/07/22 12:43:59;;;;;;;2.47;1.62;;;29.30;49.80;;;;;;1848949;76;21034;-66
2022/07/22 12:46:29;;;;;;;6.25;2.00;;;29.20;50.40;;;;;;1847892;78;21038;-66
2022/07/22 12:49:00;;;;;;;3.92;1.40;;;29.00;50.80;;;;;;1848139;78;21051;-66
2022/07/22 12:51:29;;;;;;;3.75;1.70;;;29.00;51.30;;;;;;1846339;78;21034;-68
2022/07/22 12:53:59;;;;;;;15.40;2.12;;;29.10;51.40;;;;;;1846202;77;21484;-68
2022/07/22 12:56:28;;;;;;;5.78;1.50;;;29.10;51.60;;;;;;1830531;74;21092;-69
2022/07/22 12:58:58;;;;;;;2.40;1.15;;;29.10;51.70;;;;;;1817508;79;21048;-69
2022/07/22 13:01:27;;;;;;;5.85;1.90;;;29.00;51.80;;;;;;1816678;78;21193;-67
2022/07/22 13:03:57;;;;;;;7.28;1.85;;;28.80;51.70;;;;;;1817779;79;21185;-66
2022/07/22 13:06:26;;;;;;;6.47;2.30;;;28.70;52.00;;;;;;1817720;79;21087;-67
2022/07/22 13:08:56;;;;;;;5.95;2.20;;;28.50;52.30;;;;;;1817890;78;21122;-68